createdAt,value
2022-11-13T00:01:24.045Z,101818.70
2022-11-13T00:03:52.420Z,101816.34
2022-11-13T00:06:20.855Z,101815.48
2022-11-13T00:08:55.072Z,101822.21
2022-11-13T00:11:23.324Z,101818.00
2022-11-13T00:13:51.696Z,101816.39
2022-11-13T00:16:21.944Z,101816.70
2022-11-13T00:18:50.305Z,101818.41
2022-11-13T00:21:23.485Z,101812.98
2022-11-13T00:23:52.085Z,101817.42
2022-11-13T00:26:27.448Z,101820.36
2022-11-13T00:28:59.953Z,101815.35
2022-11-13T00:31:29.685Z,101818.84
2022-11-13T00:34:19.446Z,101821.90
2022-11-13T00:36:48.195Z,101821.13
2022-11-13T00:39:16.503Z,101818.72
2022-11-13T00:41:44.849Z,101817.42
2022-11-13T00:44:13.257Z,101819.42
2022-11-13T00:46:41.706Z,101819.34
2022-11-13T00:49:10.036Z,101817.71
2022-11-13T00:51:38.516Z,101816.10
2022-11-13T00:54:06.864Z,101806.41
2022-11-13T00:56:35.220Z,101799.95
2022-11-13T00:59:03.598Z,101804.30
2022-11-13T01:01:32.069Z,101801.27
2022-11-13T01:04:00.381Z,101795.86
2022-11-13T01:06:29.061Z,101795.38
2022-11-13T01:09:02.349Z,101794.02
2022-11-13T01:11:31.164Z,101793.15
2022-11-13T01:13:59.504Z,101784.48
2022-11-13T01:16:28.576Z,101786.08
2022-11-13T01:18:56.985Z,101781.20
2022-11-13T01:21:27.961Z,101784.79
2022-11-13T01:23:56.784Z,101783.40
2022-11-13T01:26:30.747Z,101784.30
2022-11-13T01:29:00.413Z,101777.02
2022-11-13T01:31:30.881Z,101774.20
2022-11-13T01:33:59.606Z,101771.14
2022-11-13T01:36:29.676Z,101772.48
2022-11-13T01:38:58.150Z,101765.39
2022-11-13T01:41:32.995Z,101764.66
2022-11-13T01:44:02.001Z,101767.36
2022-11-13T01:46:38.843Z,101757.98
2022-11-13T01:49:27.264Z,101753.96
2022-11-13T01:52:10.533Z,101754.16
2022-11-13T01:54:53.853Z,101750.48
2022-11-13T01:57:22.917Z,101750.94
2022-11-13T01:59:58.495Z,101747.66
2022-11-13T02:02:26.930Z,101745.38
2022-11-13T02:04:55.305Z,101740.17
2022-11-13T02:07:24.444Z,101740.14
2022-11-13T02:09:58.119Z,101734.26
2022-11-13T02:12:35.658Z,101733.90
2022-11-13T02:15:07.365Z,101731.80
2022-11-13T02:17:50.236Z,101731.79
2022-11-13T02:21:05.975Z,101734.69
2022-11-13T02:23:44.902Z,101734.66
2022-11-13T02:26:13.493Z,101733.20
2022-11-13T02:28:41.833Z,101732.36
2022-11-13T02:31:13.686Z,101732.60
2022-11-13T02:33:42.155Z,101730.36
2022-11-13T02:36:12.216Z,101731.55
2022-11-13T02:38:42.097Z,101722.09
2022-11-13T02:41:10.485Z,101715.66
2022-11-13T02:43:38.852Z,101714.61
2022-11-13T02:46:07.180Z,101711.47
2022-11-13T02:48:35.506Z,101705.38
2022-11-13T02:51:04.435Z,101702.36
2022-11-13T02:53:33.029Z,101701.67
2022-11-13T02:56:01.404Z,101700.77
2022-11-13T02:58:30.300Z,101696.56
2022-11-13T03:01:03.548Z,101694.95
2022-11-13T03:03:56.460Z,101689.66
2022-11-13T03:06:20.198Z,101685.46
2022-11-13T03:08:48.526Z,101680.89
2022-11-13T03:11:16.777Z,101676.85
2022-11-13T03:13:45.122Z,101680.67
2022-11-13T03:16:16.593Z,101678.20
2022-11-13T03:18:44.885Z,101671.67
2022-11-13T03:21:16.026Z,101670.08
2022-11-13T03:23:47.455Z,101667.98
2022-11-13T03:26:17.557Z,101668.01
2022-11-13T03:28:46.289Z,101664.77
2022-11-13T03:31:14.722Z,101666.88
2022-11-13T03:33:43.427Z,101665.99
2022-11-13T03:36:11.784Z,101663.16
2022-11-13T03:38:40.317Z,101664.88
2022-11-13T03:41:08.634Z,101669.23
2022-11-13T03:43:36.969Z,101669.59
2022-11-13T03:46:05.545Z,101664.53
2022-11-13T03:48:34.157Z,101666.55
2022-11-13T03:51:03.089Z,101668.55
2022-11-13T03:53:31.423Z,101661.95
2022-11-13T03:56:00.166Z,101657.14
2022-11-13T03:58:28.715Z,101654.83
2022-11-13T04:00:57.370Z,101654.94
2022-11-13T04:03:25.811Z,101660.91
2022-11-13T04:05:54.111Z,101665.20
2022-11-13T04:08:22.408Z,101661.17
2022-11-13T04:10:50.713Z,101656.75
2022-11-13T04:13:19.112Z,101661.48
2022-11-13T04:15:47.904Z,101660.96
2022-11-13T04:18:16.148Z,101660.92
2022-11-13T04:20:44.475Z,101659.27
2022-11-13T04:23:14.349Z,101667.88
2022-11-13T04:25:42.630Z,101666.95
2022-11-13T04:28:11.297Z,101671.34
2022-11-13T04:30:39.589Z,101672.44
2022-11-13T04:33:07.925Z,101670.15
2022-11-13T04:35:36.370Z,101669.30
2022-11-13T04:38:05.052Z,101673.31
2022-11-13T04:40:33.683Z,101670.21
2022-11-13T04:43:02.264Z,101674.79
2022-11-13T04:45:30.811Z,101672.78
2022-11-13T04:47:59.120Z,101675.88
2022-11-13T04:50:27.571Z,101673.08
2022-11-13T04:52:55.966Z,101671.16
2022-11-13T04:55:24.359Z,101668.73
2022-11-13T04:57:56.395Z,101670.96
2022-11-13T05:00:24.778Z,101674.48
2022-11-13T05:02:53.312Z,101677.83
2022-11-13T05:05:21.701Z,101677.00
2022-11-13T05:07:49.988Z,101680.04
2022-11-13T05:10:18.374Z,101676.21
2022-11-13T05:12:46.699Z,101675.89
2022-11-13T05:15:15.029Z,101677.03
2022-11-13T05:17:43.429Z,101677.14
2022-11-13T05:20:12.122Z,101677.55
2022-11-13T05:22:40.390Z,101674.86
2022-11-13T05:25:09.009Z,101674.38
2022-11-13T05:27:37.388Z,101677.23
2022-11-13T05:30:06.687Z,101676.42
2022-11-13T05:32:35.007Z,101677.86
2022-11-13T05:35:03.796Z,101682.77
2022-11-13T05:37:32.184Z,101680.89
2022-11-13T05:40:00.478Z,101675.34
2022-11-13T05:42:28.798Z,101672.31
2022-11-13T05:44:57.231Z,101674.69
2022-11-13T05:47:25.671Z,101678.83
2022-11-13T05:49:54.118Z,101676.16
2022-11-13T05:52:22.421Z,101672.05
2022-11-13T05:54:50.739Z,101672.73
2022-11-13T05:57:19.034Z,101669.21
2022-11-13T05:59:47.309Z,101670.70
2022-11-13T06:02:15.671Z,101670.23
2022-11-13T06:04:43.990Z,101674.32
2022-11-13T06:07:13.683Z,101673.02
2022-11-13T06:09:42.034Z,101669.83
2022-11-13T06:12:10.415Z,101665.73
2022-11-13T06:14:38.721Z,101665.41
2022-11-13T06:17:07.031Z,101663.36
2022-11-13T06:19:35.386Z,101663.73
2022-11-13T06:22:03.727Z,101658.90
2022-11-13T06:24:32.039Z,101662.88
2022-11-13T06:27:00.378Z,101662.91
2022-11-13T06:29:28.734Z,101661.85
2022-11-13T06:31:57.213Z,101664.27
2022-11-13T06:34:25.509Z,101659.41
2022-11-13T06:36:53.792Z,101656.30
2022-11-13T06:39:22.130Z,101655.07
2022-11-13T06:41:50.565Z,101657.13
2022-11-13T06:44:18.896Z,101658.16
2022-11-13T06:46:47.189Z,101653.63
2022-11-13T06:49:15.490Z,101654.27
2022-11-13T06:51:43.768Z,101656.13
2022-11-13T06:54:12.025Z,101655.91
2022-11-13T06:56:45.412Z,101655.35
2022-11-13T06:59:13.669Z,101654.98
2022-11-13T07:01:41.944Z,101652.68
2022-11-13T07:04:13.581Z,101655.03
2022-11-13T07:06:42.032Z,101651.13
2022-11-13T07:09:10.413Z,101643.13
2022-11-13T07:11:38.782Z,101642.28
2022-11-13T07:14:11.204Z,101638.98
2022-11-13T07:17:07.413Z,101633.77
2022-11-13T07:19:27.999Z,101628.20
2022-11-13T07:21:56.330Z,101627.05
2022-11-13T07:24:24.993Z,101625.52
2022-11-13T07:26:53.301Z,101625.61
2022-11-13T07:29:21.582Z,101626.41
2022-11-13T07:31:50.015Z,101623.99
2022-11-13T07:34:18.267Z,101621.02
2022-11-13T07:36:46.708Z,101619.26
2022-11-13T07:39:15.024Z,101622.91
2022-11-13T07:41:43.347Z,101624.17
2022-11-13T07:44:21.895Z,101630.05
2022-11-13T07:47:00.615Z,101627.20
2022-11-13T07:49:28.901Z,101623.85
2022-11-13T07:51:57.261Z,101620.52
2022-11-13T07:54:25.544Z,101621.92
2022-11-13T07:56:53.865Z,101624.77
2022-11-13T07:59:22.200Z,101621.88
2022-11-13T08:01:50.616Z,101620.16
2022-11-13T08:04:19.173Z,101621.36
2022-11-13T08:06:47.711Z,101623.63
2022-11-13T08:09:16.017Z,101626.38
2022-11-13T08:11:44.365Z,101623.34
2022-11-13T08:14:12.826Z,101621.77
2022-11-13T08:16:41.148Z,101628.44
2022-11-13T08:19:09.915Z,101624.65
2022-11-13T08:21:38.257Z,101630.60
2022-11-13T08:24:06.925Z,101625.18
2022-11-13T08:26:38.848Z,101629.71
2022-11-13T08:29:07.231Z,101630.26
2022-11-13T08:31:36.792Z,101626.34
2022-11-13T08:34:05.215Z,101626.55
2022-11-13T08:36:33.981Z,101630.68
2022-11-13T08:39:02.412Z,101622.36
2022-11-13T08:41:30.791Z,101625.67
2022-11-13T08:43:59.147Z,101628.05
2022-11-13T08:46:27.632Z,101630.91
2022-11-13T08:48:56.158Z,101633.37
2022-11-13T08:51:24.495Z,101630.10
2022-11-13T08:53:52.855Z,101629.82
2022-11-13T08:56:21.280Z,101633.67
2022-11-13T08:58:49.645Z,101637.59
2022-11-13T09:01:18.011Z,101637.53
2022-11-13T09:03:51.395Z,101647.56
2022-11-13T09:06:19.710Z,101647.95
2022-11-13T09:08:48.026Z,101643.73
2022-11-13T09:11:16.803Z,101644.06
2022-11-13T09:13:50.667Z,101645.28
2022-11-13T09:16:21.808Z,101647.50
2022-11-13T09:18:51.926Z,101647.88
2022-11-13T09:21:20.266Z,101650.39
2022-11-13T09:23:48.632Z,101654.05
2022-11-13T09:26:17.901Z,101650.04
2022-11-13T09:28:46.298Z,101644.73
2022-11-13T09:31:14.768Z,101646.66
2022-11-13T09:33:43.042Z,101648.25
2022-11-13T09:36:14.957Z,101650.68
2022-11-13T09:38:43.367Z,101654.35
2022-11-13T09:41:20.722Z,101652.66
2022-11-13T09:43:59.849Z,101652.38
2022-11-13T09:46:45.989Z,101649.41
2022-11-13T09:49:28.798Z,101651.10
2022-11-13T09:52:06.532Z,101654.36
2022-11-13T09:54:35.060Z,101657.02
2022-11-13T09:57:20.457Z,101654.02
2022-11-13T10:00:02.173Z,101651.88
2022-11-13T10:03:10.781Z,101646.64
2022-11-13T10:06:00.434Z,101648.70
2022-11-13T10:09:00.448Z,101647.28
2022-11-13T10:11:44.712Z,101645.20
2022-11-13T10:14:25.217Z,101642.70
2022-11-13T10:17:06.977Z,101644.14
2022-11-13T10:19:59.324Z,101637.96
2022-11-13T10:23:15.600Z,101639.15
2022-11-13T10:25:45.159Z,101636.83
2022-11-13T10:28:48.719Z,101633.90
2022-11-13T10:31:12.674Z,101636.09
2022-11-13T10:33:40.959Z,101636.67
2022-11-13T10:36:39.945Z,101632.35
2022-11-13T10:39:09.776Z,101631.79
2022-11-13T10:41:53.304Z,101625.65
2022-11-13T10:44:29.607Z,101620.54
2022-11-13T10:48:02.107Z,101622.46
2022-11-13T10:50:36.279Z,101620.77
2022-11-13T10:53:17.383Z,101619.33
2022-11-13T10:55:50.676Z,101614.30
2022-11-13T10:58:20.270Z,101607.92
2022-11-13T11:00:49.977Z,101605.51
2022-11-13T11:03:22.534Z,101608.00
2022-11-13T11:06:00.803Z,101610.10
2022-11-13T11:08:33.890Z,101604.90
2022-11-13T11:11:36.902Z,101603.20
2022-11-13T11:14:38.567Z,101601.38
2022-11-13T11:17:09.301Z,101598.12
2022-11-13T11:19:39.019Z,101596.01
2022-11-13T11:22:21.650Z,101592.79
2022-11-13T11:25:20.743Z,101589.91
2022-11-13T11:28:03.885Z,101591.48
2022-11-13T11:30:44.190Z,101588.91
2022-11-13T11:34:01.981Z,101585.21
2022-11-13T11:36:40.651Z,101584.50
2022-11-13T11:39:54.442Z,101587.39
2022-11-13T11:42:37.922Z,101580.09
2022-11-13T11:45:40.211Z,101575.63
2022-11-13T11:48:16.591Z,101575.56
2022-11-13T11:51:22.479Z,101568.33
2022-11-13T11:54:24.937Z,101560.64
2022-11-13T11:57:00.051Z,101555.50
2022-11-13T11:59:58.727Z,101552.41
2022-11-13T12:02:46.393Z,101550.30
2022-11-13T12:05:56.281Z,101548.02
2022-11-13T12:08:50.868Z,101540.79
2022-11-13T12:12:07.204Z,101539.91
2022-11-13T12:15:39.303Z,101534.34
2022-11-13T12:18:46.651Z,101535.06
2022-11-13T12:21:23.775Z,101532.48
2022-11-13T12:24:45.856Z,101528.69
2022-11-13T12:27:22.102Z,101523.66
2022-11-13T12:30:19.709Z,101520.08
2022-11-13T12:32:55.177Z,101514.46
2022-11-13T12:35:26.047Z,101509.34
2022-11-13T12:38:06.415Z,101504.33
2022-11-13T12:40:59.916Z,101502.33
2022-11-13T12:43:43.786Z,101505.17
2022-11-13T12:46:13.233Z,101509.00
2022-11-13T12:48:47.751Z,101498.61
2022-11-13T12:51:18.506Z,101496.38
2022-11-13T12:53:54.208Z,101489.09
2022-11-13T12:56:26.439Z,101488.31
2022-11-13T12:59:32.482Z,101484.20
2022-11-13T13:02:06.889Z,101480.09
2022-11-13T13:04:47.497Z,101476.55
2022-11-13T13:07:51.279Z,101467.46
2022-11-13T13:10:23.387Z,101467.31
2022-11-13T13:13:00.569Z,101464.06
2022-11-13T13:15:53.834Z,101456.98
2022-11-13T13:18:34.561Z,101454.89
2022-11-13T13:21:06.589Z,101451.36
2022-11-13T13:23:41.805Z,101450.05
2022-11-13T13:26:13.327Z,101446.70
2022-11-13T13:28:48.064Z,101446.48
2022-11-13T13:31:54.664Z,101441.20
2022-11-13T13:35:04.598Z,101437.86
2022-11-13T13:37:54.452Z,101431.13
2022-11-13T13:40:34.824Z,101424.30
2022-11-13T13:43:47.435Z,101423.27
2022-11-13T13:46:22.552Z,101417.74
2022-11-13T13:48:57.115Z,101412.67
2022-11-13T13:51:31.661Z,101412.79
2022-11-13T13:54:05.270Z,101418.51
2022-11-13T13:56:40.334Z,101417.37
2022-11-13T13:59:37.118Z,101420.95
2022-11-13T14:02:23.343Z,101425.42
2022-11-13T14:04:54.874Z,101422.01
2022-11-13T14:07:30.378Z,101421.48
2022-11-13T14:10:20.753Z,101417.69
2022-11-13T14:12:49.577Z,101420.00
2022-11-13T14:15:29.803Z,101423.42
2022-11-13T14:18:18.244Z,101419.67
2022-11-13T14:20:56.689Z,101421.56
2022-11-13T14:23:40.334Z,101424.17
2022-11-13T14:26:13.219Z,101420.64
2022-11-13T14:29:01.095Z,101422.77
2022-11-13T14:31:34.053Z,101422.64
2022-11-13T14:34:11.546Z,101422.73
2022-11-13T14:36:41.027Z,101418.56
2022-11-13T14:39:30.409Z,101421.55
2022-11-13T14:42:01.292Z,101415.16
2022-11-13T14:44:34.750Z,101416.55
2022-11-13T14:47:21.734Z,101411.05
2022-11-13T14:49:50.186Z,101416.40
2022-11-13T14:52:25.576Z,101413.69
2022-11-13T14:55:20.827Z,101412.73
2022-11-13T14:57:50.371Z,101410.84
2022-11-13T15:00:27.832Z,101411.84
2022-11-13T15:02:56.482Z,101418.23
2022-11-13T15:05:25.507Z,101408.05
2022-11-13T15:07:56.553Z,101405.53
2022-11-13T15:10:28.257Z,101406.15
2022-11-13T15:12:56.696Z,101401.88
2022-11-13T15:15:30.420Z,101400.61
2022-11-13T15:17:58.926Z,101395.48
2022-11-13T15:20:29.227Z,101392.77
2022-11-13T15:22:59.615Z,101390.98
2022-11-13T15:25:27.994Z,101387.99
2022-11-13T15:27:56.373Z,101390.02
2022-11-13T15:30:24.681Z,101392.70
2022-11-13T15:32:54.203Z,101395.75
2022-11-13T15:35:22.762Z,101394.41
2022-11-13T15:37:51.696Z,101393.73
2022-11-13T15:40:20.247Z,101389.08
2022-11-13T15:42:48.747Z,101383.74
2022-11-13T15:45:17.422Z,101380.09
2022-11-13T15:47:45.882Z,101383.11
2022-11-13T15:50:15.919Z,101379.48
2022-11-13T15:52:52.134Z,101381.89
2022-11-13T15:55:29.591Z,101382.16
2022-11-13T15:57:58.671Z,101379.30
2022-11-13T16:00:29.000Z,101381.92
2022-11-13T16:02:57.744Z,101384.19
2022-11-13T16:05:29.266Z,101383.88
2022-11-13T16:07:57.998Z,101380.28
2022-11-13T16:10:26.391Z,101381.30
2022-11-13T16:12:55.491Z,101379.13
2022-11-13T16:15:24.160Z,101379.20
2022-11-13T16:17:57.669Z,101381.04
2022-11-13T16:20:26.075Z,101381.48
2022-11-13T16:22:55.079Z,101384.33
2022-11-13T16:25:23.567Z,101381.30
2022-11-13T16:27:52.270Z,101381.85
2022-11-13T16:30:23.390Z,101386.77
2022-11-13T16:32:52.133Z,101387.63
2022-11-13T16:35:21.169Z,101384.98
2022-11-13T16:37:49.646Z,101382.71
2022-11-13T16:40:25.961Z,101376.30
2022-11-13T16:42:54.360Z,101373.56
2022-11-13T16:45:23.267Z,101373.36
2022-11-13T16:47:51.738Z,101371.59
2022-11-13T16:50:28.031Z,101369.21
2022-11-13T16:52:56.804Z,101366.55
2022-11-13T16:55:25.386Z,101367.55
2022-11-13T16:57:53.825Z,101366.61
2022-11-13T17:00:22.443Z,101365.67
2022-11-13T17:02:55.184Z,101363.63
2022-11-13T17:05:24.187Z,101356.07
2022-11-13T17:07:59.411Z,101354.96
2022-11-13T17:10:32.606Z,101354.19
2022-11-13T17:13:01.737Z,101358.14
2022-11-13T17:15:31.321Z,101360.80
2022-11-13T17:17:59.831Z,101357.64
2022-11-13T17:20:28.219Z,101356.16
2022-11-13T17:22:57.168Z,101351.41
2022-11-13T17:25:27.983Z,101349.44
2022-11-13T17:27:56.523Z,101348.58
2022-11-13T17:30:24.905Z,101349.12
2022-11-13T17:32:53.230Z,101344.89
2022-11-13T17:35:21.624Z,101344.00
2022-11-13T17:37:50.086Z,101347.61
2022-11-13T17:40:19.471Z,101343.44
2022-11-13T17:42:49.465Z,101349.96
2022-11-13T17:45:17.876Z,101354.61
2022-11-13T17:47:46.366Z,101349.00
2022-11-13T17:50:15.460Z,101348.27
2022-11-13T17:52:43.894Z,101348.17
2022-11-13T17:55:13.991Z,101344.95
2022-11-13T17:57:42.473Z,101347.61
2022-11-13T18:00:11.620Z,101343.94
2022-11-13T18:02:40.019Z,101343.52
2022-11-13T18:05:10.067Z,101339.77
2022-11-13T18:07:40.106Z,101336.44
2022-11-13T18:10:10.987Z,101337.40
2022-11-13T18:12:39.538Z,101341.61
2022-11-13T18:15:08.218Z,101337.54
2022-11-13T18:17:36.658Z,101339.66
2022-11-13T18:20:05.677Z,101338.16
2022-11-13T18:22:34.073Z,101338.05
2022-11-13T18:25:03.333Z,101339.46
2022-11-13T18:27:31.972Z,101332.23
2022-11-13T18:30:00.420Z,101325.79
2022-11-13T18:32:28.846Z,101329.25
2022-11-13T18:34:57.194Z,101323.55
2022-11-13T18:37:25.660Z,101321.52
2022-11-13T18:39:54.112Z,101325.54
2022-11-13T18:42:22.521Z,101325.75
2022-11-13T18:44:51.129Z,101323.36
2022-11-13T18:47:19.629Z,101323.71
2022-11-13T18:49:48.553Z,101318.73
2022-11-13T18:52:16.922Z,101316.77
2022-11-13T18:54:45.282Z,101318.60
2022-11-13T18:57:13.645Z,101324.95
2022-11-13T18:59:41.972Z,101320.48
2022-11-13T19:02:12.956Z,101321.85
2022-11-13T19:04:41.444Z,101324.80
2022-11-13T19:07:12.247Z,101320.33
2022-11-13T19:09:45.059Z,101317.11
2022-11-13T19:12:13.472Z,101317.42
2022-11-13T19:14:41.823Z,101314.50
2022-11-13T19:17:10.863Z,101311.95
2022-11-13T19:19:41.775Z,101313.19
2022-11-13T19:22:10.229Z,101313.85
2022-11-13T19:24:38.656Z,101316.52
2022-11-13T19:27:07.011Z,101317.13
2022-11-13T19:29:35.342Z,101322.17
2022-11-13T19:32:03.945Z,101323.77
2022-11-13T19:34:32.364Z,101319.80
2022-11-13T19:37:00.781Z,101325.27
2022-11-13T19:39:29.145Z,101324.61
2022-11-13T19:41:57.567Z,101322.73
2022-11-13T19:44:26.083Z,101318.48
2022-11-13T19:46:54.456Z,101319.23
2022-11-13T19:49:22.896Z,101318.77
2022-11-13T19:51:51.254Z,101322.80
2022-11-13T19:54:19.665Z,101320.92
2022-11-13T19:56:48.184Z,101323.23
2022-11-13T19:59:16.652Z,101325.30
2022-11-13T20:01:45.076Z,101330.67
2022-11-13T20:04:13.818Z,101326.23
2022-11-13T20:06:42.442Z,101330.95
2022-11-13T20:09:11.025Z,101330.08
2022-11-13T20:11:39.556Z,101328.30
2022-11-13T20:14:12.137Z,101328.08
2022-11-13T20:16:40.503Z,101336.46
2022-11-13T20:19:08.919Z,101334.64
2022-11-13T20:21:37.315Z,101327.97
2022-11-13T20:24:06.014Z,101326.32
2022-11-13T20:26:34.367Z,101324.52
2022-11-13T20:29:02.889Z,101327.83
2022-11-13T20:31:31.363Z,101331.91
2022-11-13T20:33:59.819Z,101336.80
2022-11-13T20:36:28.202Z,101333.06
2022-11-13T20:38:57.830Z,101337.22
2022-11-13T20:41:26.280Z,101331.39
2022-11-13T20:44:01.843Z,101330.87
2022-11-13T20:46:30.898Z,101321.55
2022-11-13T20:48:59.627Z,101322.83
2022-11-13T20:51:29.046Z,101325.45
2022-11-13T20:53:57.667Z,101323.63
2022-11-13T20:56:26.979Z,101318.16
2022-11-13T20:58:55.695Z,101310.95
2022-11-13T21:01:26.175Z,101309.27
2022-11-13T21:03:56.063Z,101308.25
2022-11-13T21:06:27.295Z,101309.65
2022-11-13T21:08:56.524Z,101309.54
2022-11-13T21:11:25.671Z,101304.77
2022-11-13T21:13:55.503Z,101307.07
2022-11-13T21:16:24.990Z,101306.77
2022-11-13T21:18:59.014Z,101299.39
2022-11-13T21:21:28.948Z,101301.69
2022-11-13T21:23:59.211Z,101301.01
2022-11-13T21:26:28.947Z,101301.40
2022-11-13T21:28:57.858Z,101298.72
2022-11-13T21:31:27.342Z,101294.30
2022-11-13T21:33:57.618Z,101294.88
2022-11-13T21:36:28.912Z,101289.77
2022-11-13T21:38:57.412Z,101287.24
2022-11-13T21:41:26.072Z,101284.09
2022-11-13T21:44:00.455Z,101284.86
2022-11-13T21:46:38.256Z,101282.71
2022-11-13T21:49:10.153Z,101286.17
2022-11-13T21:51:41.219Z,101280.98
2022-11-13T21:54:10.044Z,101279.91
2022-11-13T21:56:38.940Z,101282.05
2022-11-13T21:59:07.581Z,101279.09
2022-11-13T22:01:38.486Z,101280.01
2022-11-13T22:04:07.365Z,101275.80
2022-11-13T22:06:41.859Z,101280.49
2022-11-13T22:09:19.790Z,101274.80
2022-11-13T22:11:48.847Z,101270.62
2022-11-13T22:14:17.362Z,101270.50
2022-11-13T22:16:47.632Z,101268.62
2022-11-13T22:19:23.822Z,101268.98
2022-11-13T22:21:55.161Z,101269.23
2022-11-13T22:24:23.556Z,101264.41
2022-11-13T22:26:51.949Z,101260.00
2022-11-13T22:29:20.299Z,101262.35
2022-11-13T22:31:48.704Z,101259.18
2022-11-13T22:34:18.298Z,101261.71
2022-11-13T22:36:46.706Z,101262.13
2022-11-13T22:39:15.152Z,101262.71
2022-11-13T22:41:43.566Z,101255.96
2022-11-13T22:44:13.907Z,101253.70
2022-11-13T22:46:42.230Z,101250.92
2022-11-13T22:49:11.885Z,101253.14
2022-11-13T22:51:41.650Z,101250.98
2022-11-13T22:54:12.512Z,101249.61
2022-11-13T22:56:42.049Z,101249.10
2022-11-13T22:59:12.277Z,101251.05
2022-11-13T23:01:43.052Z,101252.30
2022-11-13T23:04:13.759Z,101251.67
2022-11-13T23:06:43.263Z,101254.81
2022-11-13T23:09:11.587Z,101257.05
2022-11-13T23:11:41.369Z,101250.35
2022-11-13T23:14:15.864Z,101249.75
2022-11-13T23:16:44.271Z,101247.56
2022-11-13T23:19:13.034Z,101243.10
2022-11-13T23:21:41.599Z,101242.08
2022-11-13T23:24:10.507Z,101240.87
2022-11-13T23:26:39.363Z,101239.81
2022-11-13T23:29:07.731Z,101240.30
2022-11-13T23:31:36.091Z,101243.35
2022-11-13T23:34:04.452Z,101242.63
2022-11-13T23:36:32.738Z,101237.89
2022-11-13T23:39:01.194Z,101230.08
2022-11-13T23:41:29.521Z,101225.04
2022-11-13T23:44:13.064Z,101229.20
2022-11-13T23:46:41.398Z,101222.27
2022-11-13T23:49:09.669Z,101213.72
2022-11-13T23:51:37.976Z,101208.27
2022-11-13T23:54:06.334Z,101205.24
2022-11-13T23:56:34.719Z,101206.40
2022-11-13T23:59:03.071Z,101203.77
